Time;durP1;ratioP1;P1;durP2;ratioP2;P2;SDS_P1;SDS_P2;PMS_P1;PMS_P2;Temp;Humidity;BMP_temperature;BMP_pressure;BME280_temperature;BME280_humidity;BME280_pressure;Samples;Min_cycle;Max_cycle;Signal;HPM_P1;HPM_P2
2023/10/27 00:00:03;;;;;;;24.60;20.00;;;9.90;99.90;;;;;;5107396;27;20043;-68
2023/10/27 00:02:28;;;;;;;23.83;19.77;;;9.90;99.90;;;;;;5104788;28;20051;-68
2023/10/27 00:04:54;;;;;;;22.75;19.63;;;9.90;99.90;;;;;;5106953;27;20545;-68
2023/10/27 00:07:19;;;;;;;24.92;20.05;;;9.80;99.90;;;;;;5105775;27;20044;-68
2023/10/27 00:09:45;;;;;;;23.42;20.10;;;9.80;99.90;;;;;;5104249;27;20034;-68
2023/10/27 00:12:11;;;;;;;22.67;20.10;;;9.80;99.90;;;;;;5105460;27;20112;-68
2023/10/27 00:14:36;;;;;;;33.92;21.75;;;9.70;99.90;;;;;;5106114;27;20044;-68
2023/10/27 00:17:02;;;;;;;23.27;19.48;;;9.80;99.90;;;;;;5102754;28;20039;-68
2023/10/27 00:19:28;;;;;;;25.63;20.50;;;9.70;99.90;;;;;;5104041;27;20031;-68
2023/10/27 00:21:53;;;;;;;23.38;20.17;;;9.70;99.90;;;;;;5104456;27;20096;-68
2023/10/27 00:24:20;;;;;;;24.77;20.40;;;9.80;99.90;;;;;;5103091;28;20047;-68
2023/10/27 00:26:45;;;;;;;24.98;20.77;;;9.80;99.90;;;;;;5102701;28;20039;-68
2023/10/27 00:29:11;;;;;;;29.60;22.27;;;9.70;99.90;;;;;;5101230;28;20103;-68
2023/10/27 00:31:36;;;;;;;24.50;20.80;;;9.70;99.90;;;;;;5104742;27;20542;-68
2023/10/27 00:34:02;;;;;;;27.02;22.48;;;9.70;99.90;;;;;;5106282;27;20082;-68
2023/10/27 00:36:28;;;;;;;28.98;22.55;;;9.80;99.90;;;;;;5133558;27;20036;-68
2023/10/27 00:38:53;;;;;;;27.90;21.13;;;9.70;99.90;;;;;;5102518;28;20050;-68
2023/10/27 00:41:19;;;;;;;28.90;23.23;;;9.80;99.90;;;;;;5105398;27;20036;-68
2023/10/27 00:43:44;;;;;;;30.02;22.83;;;9.80;99.90;;;;;;5103609;27;20048;-68
2023/10/27 00:46:10;;;;;;;26.65;22.60;;;9.70;99.90;;;;;;5135701;27;20032;-68
2023/10/27 00:48:36;;;;;;;24.92;22.23;;;9.70;99.90;;;;;;5103478;27;20447;-68
2023/10/27 00:51:05;;;;;;;30.08;23.98;;;9.70;99.90;;;;;;5108524;27;20696;-68
2023/10/27 00:53:31;;;;;;;27.35;22.90;;;9.70;99.90;;;;;;5132635;27;21469;-68
2023/10/27 00:55:57;;;;;;;28.80;22.67;;;9.70;99.90;;;;;;5105835;28;20036;-68
2023/10/27 00:58:23;;;;;;;30.50;23.92;;;9.70;99.90;;;;;;5105492;27;20122;-68
2023/10/27 01:00:50;;;;;;;32.35;23.60;;;9.70;99.90;;;;;;5108008;27;20126;-68
2023/10/27 01:03:15;;;;;;;30.83;25.08;;;9.70;99.90;;;;;;5107879;27;20052;-68
2023/10/27 01:05:41;;;;;;;30.63;24.85;;;9.80;99.90;;;;;;5099708;28;20054;-68
2023/10/27 01:08:07;;;;;;;30.90;23.52;;;9.80;99.90;;;;;;5104198;27;20039;-68
2023/10/27 01:10:32;;;;;;;29.27;23.88;;;9.70;99.90;;;;;;5102710;27;20500;-68
2023/10/27 01:12:58;;;;;;;29.15;23.55;;;9.70;99.90;;;;;;5104102;28;20036;-68
2023/10/27 01:15:24;;;;;;;33.13;24.23;;;9.70;99.90;;;;;;5103903;28;20044;-68
2023/10/27 01:17:49;;;;;;;31.85;24.10;;;9.80;99.90;;;;;;5102203;27;20047;-68
2023/10/27 01:20:15;;;;;;;32.20;24.55;;;9.70;99.90;;;;;;5099031;27;20492;-68
2023/10/27 01:22:45;;;;;;;28.27;23.60;;;9.70;99.90;;;;;;5101572;28;20038;-68
2023/10/27 01:25:12;;;;;;;29.88;23.58;;;9.70;99.90;;;;;;5107620;28;21458;-68
2023/10/27 01:27:38;;;;;;;32.92;24.48;;;9.80;99.90;;;;;;5100455;28;20046;-68
2023/10/27 01:30:04;;;;;;;30.13;23.30;;;9.70;99.90;;;;;;5107085;27;20044;-68
2023/10/27 01:32:29;;;;;;;31.02;24.02;;;9.80;99.90;;;;;;5106287;27;20032;-68
2023/10/27 01:34:55;;;;;;;29.88;24.60;;;9.80;99.90;;;;;;5104096;28;20023;-68
2023/10/27 01:37:21;;;;;;;29.33;21.33;;;9.80;99.90;;;;;;5103110;28;20126;-68
2023/10/27 01:39:48;;;;;;;31.00;24.30;;;9.80;99.90;;;;;;5104059;28;20118;-68
2023/10/27 01:42:14;;;;;;;26.23;22.58;;;9.80;99.90;;;;;;5101328;28;20077;-68
2023/10/27 01:44:40;;;;;;;28.45;21.70;;;9.80;99.90;;;;;;5135462;27;20549;-68
2023/10/27 01:47:05;;;;;;;25.58;20.70;;;9.80;99.90;;;;;;5131592;27;20039;-68
2023/10/27 01:49:31;;;;;;;27.05;21.25;;;9.80;99.90;;;;;;5101743;28;20130;-68
2023/10/27 01:51:56;;;;;;;25.67;21.50;;;9.80;99.90;;;;;;5101266;28;20039;-68
2023/10/27 01:54:22;;;;;;;28.35;21.25;;;9.80;99.90;;;;;;5103799;28;20199;-68
2023/10/27 01:56:47;;;;;;;25.23;19.98;;;9.80;99.90;;;;;;5102293;28;20035;-68
2023/10/27 01:59:13;;;;;;;25.20;20.15;;;9.80;99.90;;;;;;5102360;28;20047;-68
2023/10/27 02:01:39;;;;;;;25.80;20.00;;;9.80;99.90;;;;;;5101515;28;20044;-68
2023/10/27 02:04:04;;;;;;;27.88;21.13;;;9.80;99.90;;;;;;5105245;28;20123;-68
2023/10/27 02:06:30;;;;;;;27.17;19.73;;;9.80;99.90;;;;;;5105815;28;20032;-68
2023/10/27 02:08:56;;;;;;;28.05;19.77;;;9.80;99.90;;;;;;5103310;28;20043;-68
2023/10/27 02:11:23;;;;;;;26.05;19.42;;;9.80;99.90;;;;;;5104654;28;20047;-68
2023/10/27 02:13:49;;;;;;;22.73;18.48;;;9.70;99.90;;;;;;5097056;28;20058;-68
2023/10/27 02:16:14;;;;;;;22.40;17.52;;;9.80;99.90;;;;;;5103923;28;20371;-68
2023/10/27 02:18:40;;;;;;;21.85;17.40;;;9.80;99.90;;;;;;5133617;27;20046;-68
2023/10/27 02:21:06;;;;;;;24.63;17.92;;;10.20;99.90;;;;;;5102219;28;20044;-68
2023/10/27 02:23:32;;;;;;;23.05;17.52;;;9.80;99.90;;;;;;5101989;28;20046;-68
2023/10/27 02:25:58;;;;;;;23.52;16.08;;;9.80;99.90;;;;;;5101468;28;20035;-68
2023/10/27 02:28:24;;;;;;;23.52;16.30;;;9.80;99.90;;;;;;5130281;27;20158;-68
2023/10/27 02:30:49;;;;;;;18.92;15.90;;;9.80;99.90;;;;;;5132824;27;20464;-68
2023/10/27 02:33:15;;;;;;;22.67;16.70;;;9.80;99.90;;;;;;5103607;28;20059;-68
2023/10/27 02:35:41;;;;;;;19.73;15.65;;;9.80;99.90;;;;;;5105112;28;20066;-68
2023/10/27 02:38:06;;;;;;;19.05;15.32;;;9.80;99.90;;;;;;5103171;28;20047;-68
2023/10/27 02:40:35;;;;;;;20.92;16.75;;;9.80;99.90;;;;;;5103101;28;20173;-68
2023/10/27 02:43:00;;;;;;;19.27;16.85;;;9.80;99.90;;;;;;5100944;28;20092;-69
2023/10/27 02:45:26;;;;;;;19.00;15.43;;;9.80;99.90;;;;;;5101739;28;20048;-68
2023/10/27 02:47:51;;;;;;;24.95;16.80;;;9.80;99.90;;;;;;5101992;28;20120;-68
2023/10/27 02:50:17;;;;;;;19.58;15.82;;;9.90;99.90;;;;;;5116398;27;20035;-68
2023/10/27 02:52:43;;;;;;;20.63;15.63;;;9.90;99.90;;;;;;5103599;28;20038;-68
2023/10/27 02:55:09;;;;;;;20.88;15.43;;;9.90;99.90;;;;;;5134182;27;20032;-68
2023/10/27 02:57:34;;;;;;;19.90;14.73;;;9.80;99.90;;;;;;5104453;27;20040;-68
2023/10/27 03:00:00;;;;;;;19.17;16.27;;;9.90;99.90;;;;;;5104505;27;20067;-68
2023/10/27 03:02:27;;;;;;;18.13;15.27;;;9.90;99.90;;;;;;5105218;28;20044;-68
2023/10/27 03:04:55;;;;;;;20.83;15.18;;;9.90;99.90;;;;;;5106463;28;20550;-68
2023/10/27 03:07:21;;;;;;;20.38;14.85;;;9.90;99.90;;;;;;5106986;27;20032;-68
2023/10/27 03:09:46;;;;;;;18.33;14.57;;;9.90;99.90;;;;;;5104270;28;20059;-68
2023/10/27 03:12:12;;;;;;;18.75;14.85;;;9.90;99.90;;;;;;5101976;28;20040;-68
2023/10/27 03:14:38;;;;;;;18.45;14.10;;;9.90;99.90;;;;;;5107883;27;20114;-68
2023/10/27 03:17:03;;;;;;;18.23;14.65;;;9.80;99.90;;;;;;5105146;27;20043;-68
2023/10/27 03:19:29;;;;;;;20.45;15.68;;;9.90;99.90;;;;;;5105715;27;20040;-68
2023/10/27 03:21:54;;;;;;;17.27;14.00;;;9.90;99.90;;;;;;5111103;27;20479;-68
2023/10/27 03:24:20;;;;;;;17.10;14.32;;;9.90;99.90;;;;;;5108284;27;20044;-68
2023/10/27 03:26:47;;;;;;;15.55;13.75;;;10.00;99.90;;;;;;5104228;27;20118;-68
2023/10/27 03:29:13;;;;;;;19.48;14.32;;;9.90;99.90;;;;;;5101760;27;20123;-68
2023/10/27 03:31:39;;;;;;;20.23;14.18;;;9.90;99.90;;;;;;5106188;27;20127;-68
2023/10/27 03:34:04;;;;;;;17.45;14.77;;;9.90;99.90;;;;;;5103223;27;20040;-68
2023/10/27 03:36:30;;;;;;;19.42;14.48;;;9.90;99.90;;;;;;5108258;27;20059;-68
2023/10/27 03:38:56;;;;;;;20.15;14.18;;;9.80;99.90;;;;;;5135447;27;20048;-68
2023/10/27 03:41:21;;;;;;;19.02;14.77;;;9.90;99.90;;;;;;5104031;28;20040;-68
2023/10/27 03:43:47;;;;;;;19.15;14.45;;;9.90;99.90;;;;;;5105871;28;20049;-68
2023/10/27 03:46:13;;;;;;;16.95;13.90;;;9.90;99.90;;;;;;5103435;28;20086;-68
2023/10/27 03:48:39;;;;;;;18.95;14.77;;;9.90;99.90;;;;;;5102166;27;20043;-68
2023/10/27 03:51:05;;;;;;;16.77;14.18;;;9.90;99.90;;;;;;5107873;27;20077;-68
2023/10/27 03:53:33;;;;;;;18.30;14.13;;;9.90;99.90;;;;;;5137481;27;20039;-68
2023/10/27 03:55:59;;;;;;;18.17;14.25;;;9.90;99.90;;;;;;5102986;27;20043;-68
2023/10/27 03:58:25;;;;;;;20.00;15.18;;;9.90;99.90;;;;;;5104329;27;20477;-68
2023/10/27 04:00:50;;;;;;;16.65;13.73;;;9.90;99.90;;;;;;5103176;28;20032;-68
2023/10/27 04:03:16;;;;;;;20.27;13.40;;;9.90;99.90;;;;;;5104484;27;20110;-68
2023/10/27 04:05:41;;;;;;;20.48;14.50;;;9.90;99.90;;;;;;5104334;27;20046;-68
2023/10/27 04:08:07;;;;;;;19.25;13.73;;;9.90;99.90;;;;;;5102213;27;20040;-68
2023/10/27 04:10:36;;;;;;;19.70;14.82;;;9.90;99.90;;;;;;5136780;27;20089;-68
2023/10/27 04:13:03;;;;;;;16.52;13.20;;;9.90;99.90;;;;;;5103032;28;20043;-68
2023/10/27 04:15:29;;;;;;;16.05;13.32;;;9.90;99.90;;;;;;5102458;27;20036;-68
2023/10/27 04:17:55;;;;;;;17.02;13.80;;;9.90;99.90;;;;;;5102463;27;20524;-68
2023/10/27 04:20:21;;;;;;;18.27;13.90;;;9.80;99.90;;;;;;5105121;28;20040;-68
2023/10/27 04:22:46;;;;;;;18.70;14.80;;;9.90;99.90;;;;;;5102407;28;20417;-68
2023/10/27 04:25:12;;;;;;;17.63;14.35;;;9.80;99.90;;;;;;5102452;27;20076;-68
2023/10/27 04:27:38;;;;;;;18.48;13.73;;;9.80;99.90;;;;;;5105053;27;20040;-68
2023/10/27 04:30:07;;;;;;;18.90;14.32;;;9.80;99.90;;;;;;5108671;27;20454;-68
2023/10/27 04:32:35;;;;;;;19.83;13.93;;;9.80;99.90;;;;;;5106166;28;20035;-68
2023/10/27 04:35:01;;;;;;;19.70;14.27;;;9.80;99.90;;;;;;5133845;27;20031;-68
2023/10/27 04:37:30;;;;;;;19.80;14.30;;;9.80;99.90;;;;;;5100348;27;20112;-68
2023/10/27 04:39:56;;;;;;;19.35;13.60;;;9.80;99.90;;;;;;5101400;27;20434;-68
2023/10/27 04:42:22;;;;;;;19.05;14.43;;;9.80;99.90;;;;;;5105074;28;20036;-68
2023/10/27 04:44:48;;;;;;;23.05;14.95;;;9.80;99.90;;;;;;5101886;27;20354;-68
2023/10/27 04:47:14;;;;;;;18.17;13.30;;;9.70;99.90;;;;;;5106264;27;20043;-68
2023/10/27 04:49:39;;;;;;;17.10;13.10;;;9.80;99.90;;;;;;5133862;27;20032;-68
2023/10/27 04:52:08;;;;;;;22.92;15.10;;;9.80;99.90;;;;;;5105919;28;20036;-69
2023/10/27 04:54:34;;;;;;;17.88;13.77;;;9.70;99.90;;;;;;5102086;28;20118;-68
2023/10/27 04:57:03;;;;;;;19.67;14.18;;;9.80;99.90;;;;;;5104680;28;20061;-68
2023/10/27 04:59:32;;;;;;;20.08;14.02;;;9.80;99.90;;;;;;5106712;27;20046;-68
2023/10/27 05:01:58;;;;;;;17.45;13.88;;;9.80;99.90;;;;;;5106186;27;20148;-68
2023/10/27 05:04:25;;;;;;;20.20;14.60;;;9.70;99.90;;;;;;5108730;27;20410;-68
2023/10/27 05:06:50;;;;;;;19.45;13.98;;;9.80;99.90;;;;;;5105701;27;20043;-69
2023/10/27 05:09:18;;;;;;;19.92;14.55;;;9.80;99.90;;;;;;5103956;27;20027;-68
2023/10/27 05:11:45;;;;;;;18.08;14.38;;;9.70;99.90;;;;;;5104101;27;20044;-68
2023/10/27 05:14:14;;;;;;;19.10;14.20;;;9.70;99.90;;;;;;5102323;27;20118;-68
2023/10/27 05:16:40;;;;;;;18.55;13.38;;;9.70;99.90;;;;;;5104431;28;20044;-68
2023/10/27 05:19:06;;;;;;;17.65;14.63;;;9.70;99.90;;;;;;5107496;27;20039;-68
2023/10/27 05:21:32;;;;;;;20.45;13.43;;;9.70;99.90;;;;;;5132481;27;20500;-68
2023/10/27 05:23:58;;;;;;;18.05;14.50;;;9.70;99.90;;;;;;5101658;28;20042;-68
2023/10/27 05:26:24;;;;;;;18.30;13.60;;;9.70;99.90;;;;;;5105532;27;20039;-68
2023/10/27 05:28:51;;;;;;;19.63;13.50;;;9.70;99.90;;;;;;5134800;27;20078;-68
2023/10/27 05:31:17;;;;;;;19.48;15.00;;;9.70;99.90;;;;;;5134849;27;20154;-68
2023/10/27 05:33:43;;;;;;;20.83;14.45;;;9.60;99.90;;;;;;5101848;28;21502;-68
2023/10/27 05:36:09;;;;;;;19.38;13.95;;;9.60;99.90;;;;;;5100937;27;20039;-68
2023/10/27 05:38:35;;;;;;;18.05;13.20;;;9.60;99.90;;;;;;5098333;28;20092;-68
2023/10/27 05:41:00;;;;;;;18.55;14.02;;;9.60;99.90;;;;;;5106509;28;20114;-68
2023/10/27 05:43:26;;;;;;;22.77;14.15;;;9.60;99.90;;;;;;5100264;27;20044;-68
2023/10/27 05:45:52;;;;;;;23.67;14.60;;;9.60;99.90;;;;;;5103286;28;20036;-69
2023/10/27 05:48:18;;;;;;;16.52;13.02;;;9.50;99.90;;;;;;5100476;28;20040;-68
2023/10/27 05:50:43;;;;;;;19.40;13.07;;;9.50;99.90;;;;;;5130734;27;20370;-68
2023/10/27 05:53:09;;;;;;;18.08;13.50;;;9.50;99.90;;;;;;5101465;28;20354;-68
2023/10/27 05:55:35;;;;;;;19.88;14.15;;;9.60;99.90;;;;;;5133167;27;20103;-68
2023/10/27 05:58:01;;;;;;;17.90;13.65;;;9.50;99.90;;;;;;5102874;28;20533;-68
2023/10/27 06:00:29;;;;;;;17.35;13.20;;;9.50;99.90;;;;;;5099855;28;20046;-68
2023/10/27 06:02:54;;;;;;;15.27;13.13;;;9.50;99.90;;;;;;5133972;27;20118;-68
2023/10/27 06:05:21;;;;;;;18.35;13.88;;;9.50;99.90;;;;;;5100856;28;20479;-68
2023/10/27 06:07:47;;;;;;;19.90;13.48;;;8.90;99.90;;;;;;5101535;28;20078;-68
2023/10/27 06:10:13;;;;;;;17.40;13.93;;;9.40;99.90;;;;;;5102357;27;20035;-68
2023/10/27 06:12:38;;;;;;;17.88;13.77;;;9.40;99.90;;;;;;5102373;28;20036;-68
2023/10/27 06:15:04;;;;;;;19.38;13.65;;;9.40;99.90;;;;;;5132532;27;20039;-68
2023/10/27 06:17:30;;;;;;;16.83;12.90;;;9.40;99.90;;;;;;5135693;27;20142;-68
2023/10/27 06:19:56;;;;;;;16.40;13.50;;;9.40;99.90;;;;;;5101052;28;20173;-69
2023/10/27 06:22:22;;;;;;;17.20;13.57;;;9.40;99.90;;;;;;5132555;27;20051;-68
2023/10/27 06:24:47;;;;;;;19.48;14.23;;;9.40;99.90;;;;;;5099632;28;20126;-68
2023/10/27 06:27:13;;;;;;;19.52;13.50;;;9.30;99.90;;;;;;5101086;28;20051;-68
2023/10/27 06:29:39;;;;;;;18.30;12.63;;;9.40;99.90;;;;;;5103619;27;20507;-68
2023/10/27 06:32:06;;;;;;;15.50;12.60;;;9.40;99.90;;;;;;5106697;27;20073;-68
2023/10/27 06:34:32;;;;;;;16.20;12.75;;;9.30;99.90;;;;;;5105683;27;20039;-68
2023/10/27 06:36:58;;;;;;;15.95;12.48;;;9.30;99.90;;;;;;5108284;28;20023;-68
2023/10/27 06:39:24;;;;;;;20.92;13.15;;;9.30;99.90;;;;;;5107701;27;20413;-68
2023/10/27 06:41:50;;;;;;;17.67;12.85;;;9.30;99.90;;;;;;5108986;27;20039;-68
2023/10/27 06:44:16;;;;;;;16.85;12.48;;;9.30;99.90;;;;;;5103930;28;20482;-68
2023/10/27 06:46:44;;;;;;;18.45;11.90;;;9.30;99.90;;;;;;5106002;27;20032;-68
2023/10/27 06:49:10;;;;;;;17.45;12.48;;;9.30;99.90;;;;;;5137134;27;20118;-68
2023/10/27 06:51:35;;;;;;;16.52;12.15;;;9.30;99.90;;;;;;5102806;28;20043;-68
2023/10/27 06:54:01;;;;;;;17.00;13.05;;;9.30;99.90;;;;;;5104584;28;20032;-68
2023/10/27 06:56:28;;;;;;;16.15;12.38;;;9.30;99.90;;;;;;5104422;27;20881;-68
2023/10/27 06:58:53;;;;;;;19.77;12.63;;;9.30;99.90;;;;;;5101062;28;20079;-68
2023/10/27 07:01:19;;;;;;;21.27;14.35;;;9.30;99.90;;;;;;5103623;28;20117;-68
2023/10/27 07:03:45;;;;;;;20.30;14.75;;;9.30;99.90;;;;;;5103684;28;20130;-68
2023/10/27 07:06:12;;;;;;;17.48;13.88;;;9.30;99.90;;;;;;5100472;28;20063;-68
2023/10/27 07:08:38;;;;;;;17.17;13.05;;;9.40;99.90;;;;;;5101711;28;20039;-68
2023/10/27 07:11:04;;;;;;;18.15;13.65;;;9.40;99.90;;;;;;5102967;28;20043;-68
2023/10/27 07:13:30;;;;;;;21.80;14.10;;;9.40;99.90;;;;;;5104634;28;20044;-68
2023/10/27 07:15:56;;;;;;;18.75;13.80;;;9.40;99.90;;;;;;5102217;28;20417;-68
2023/10/27 07:18:22;;;;;;;16.83;12.55;;;9.40;99.90;;;;;;5100570;28;20093;-69
2023/10/27 07:20:48;;;;;;;17.80;13.68;;;9.40;99.90;;;;;;5103248;28;20049;-69
2023/10/27 07:23:16;;;;;;;19.30;14.18;;;9.40;99.90;;;;;;5136306;27;20121;-69
2023/10/27 07:25:42;;;;;;;18.33;12.95;;;9.40;99.90;;;;;;5103265;27;20032;-69
2023/10/27 07:28:08;;;;;;;20.05;14.20;;;9.50;99.90;;;;;;5101005;28;20057;-68
2023/10/27 07:30:34;;;;;;;19.38;14.27;;;9.40;99.90;;;;;;5134339;27;20031;-68
2023/10/27 07:33:00;;;;;;;19.02;14.77;;;9.50;99.90;;;;;;5093401;28;20032;-68
2023/10/27 07:35:26;;;;;;;20.30;13.18;;;9.40;99.90;;;;;;5137146;27;20031;-68
2023/10/27 07:37:52;;;;;;;18.80;13.63;;;9.50;99.90;;;;;;5102672;27;20044;-68
2023/10/27 07:40:19;;;;;;;15.90;13.52;;;9.50;99.90;;;;;;5099945;27;20056;-69
2023/10/27 07:42:44;;;;;;;17.10;12.93;;;9.50;99.90;;;;;;5102017;27;20073;-69
2023/10/27 07:45:10;;;;;;;19.40;14.32;;;9.50;99.90;;;;;;5100167;28;20051;-69
2023/10/27 07:47:36;;;;;;;21.05;13.32;;;9.50;99.90;;;;;;5102380;27;20047;-69
2023/10/27 07:50:02;;;;;;;16.05;12.70;;;9.50;99.90;;;;;;5105735;27;20047;-69
2023/10/27 07:52:28;;;;;;;18.67;12.85;;;9.50;99.90;;;;;;5099356;28;20040;-69
2023/10/27 07:54:54;;;;;;;15.15;12.15;;;9.80;99.90;;;;;;5101370;27;20043;-68
2023/10/27 07:57:21;;;;;;;18.85;13.63;;;9.60;99.90;;;;;;5100186;27;20042;-69
2023/10/27 07:59:47;;;;;;;16.70;12.73;;;9.60;99.90;;;;;;5100942;27;20075;-68
2023/10/27 08:02:13;;;;;;;18.05;13.43;;;9.60;99.90;;;;;;5133409;27;20573;-68
2023/10/27 08:04:38;;;;;;;17.48;12.68;;;9.60;99.90;;;;;;5103136;27;20035;-68
2023/10/27 08:07:04;;;;;;;15.77;12.25;;;9.60;99.90;;;;;;5101172;28;20081;-69
2023/10/27 08:09:31;;;;;;;18.85;13.40;;;9.60;99.90;;;;;;5107848;27;20556;-69
2023/10/27 08:11:57;;;;;;;16.67;12.48;;;9.60;99.90;;;;;;5104978;27;20108;-69
2023/10/27 08:14:23;;;;;;;17.02;12.52;;;9.70;99.90;;;;;;5103485;27;20486;-68
2023/10/27 08:16:49;;;;;;;19.88;13.10;;;9.60;99.90;;;;;;5133412;27;20036;-68
2023/10/27 08:19:14;;;;;;;16.05;12.80;;;9.70;99.90;;;;;;5134956;27;20035;-69
2023/10/27 08:21:40;;;;;;;16.75;12.75;;;9.70;99.90;;;;;;5102390;28;20130;-68
2023/10/27 08:24:06;;;;;;;17.20;13.07;;;9.70;99.90;;;;;;5098524;28;20031;-69
2023/10/27 08:26:32;;;;;;;17.05;13.10;;;9.70;99.90;;;;;;5102414;28;20067;-68
2023/10/27 08:28:58;;;;;;;17.02;13.10;;;9.70;99.90;;;;;;5099887;27;20075;-68
2023/10/27 08:31:24;;;;;;;17.23;13.60;;;9.80;99.90;;;;;;5101910;28;20050;-68
2023/10/27 08:33:49;;;;;;;17.75;12.40;;;9.80;99.90;;;;;;5100071;27;20035;-68
2023/10/27 08:36:15;;;;;;;17.67;13.02;;;9.80;99.90;;;;;;5104952;27;20059;-68
2023/10/27 08:38:41;;;;;;;18.60;13.68;;;9.80;99.90;;;;;;5100816;27;20040;-68
2023/10/27 08:41:07;;;;;;;16.95;12.85;;;9.80;99.90;;;;;;5100708;27;20038;-68
2023/10/27 08:43:34;;;;;;;17.58;13.57;;;9.90;99.90;;;;;;5103097;27;20043;-68
2023/10/27 08:46:03;;;;;;;17.58;13.70;;;9.90;99.90;;;;;;5101765;27;20040;-68
2023/10/27 08:48:29;;;;;;;16.08;12.25;;;9.90;99.90;;;;;;5100178;27;20181;-67
2023/10/27 08:50:57;;;;;;;16.05;12.90;;;9.90;99.90;;;;;;5100725;28;20040;-67
2023/10/27 08:53:23;;;;;;;16.23;12.90;;;9.90;99.90;;;;;;5133803;27;20100;-70
2023/10/27 08:55:49;;;;;;;16.58;12.65;;;10.00;99.90;;;;;;5102198;27;20121;-70
2023/10/27 08:58:15;;;;;;;15.07;12.43;;;9.90;99.90;;;;;;5098594;28;20039;-69
2023/10/27 09:00:40;;;;;;;16.95;13.30;;;10.00;99.90;;;;;;5097152;28;20084;-72
2023/10/27 09:03:17;;;;;;;16.45;12.93;;;10.10;99.90;;;;;;5105184;27;20097;-70
2023/10/27 09:05:42;;;;;;;14.60;12.60;;;10.10;99.90;;;;;;5106399;27;20032;-71
2023/10/27 09:08:09;;;;;;;13.98;12.00;;;10.10;99.90;;;;;;5100754;28;20562;-70
2023/10/27 09:10:34;;;;;;;15.80;12.45;;;10.10;99.90;;;;;;5097891;27;20123;-70
2023/10/27 09:13:00;;;;;;;15.30;12.65;;;10.10;99.90;;;;;;5102183;28;20146;-70
2023/10/27 09:15:25;;;;;;;15.57;12.40;;;10.10;99.90;;;;;;5099945;28;20054;-70
2023/10/27 09:17:58;;;;;;;15.93;12.73;;;10.10;99.90;;;;;;5098604;27;20451;-70
2023/10/27 09:20:25;;;;;;;14.68;11.85;;;10.20;99.90;;;;;;5102293;27;20028;-71
2023/10/27 09:23:04;;;;;;;15.63;12.30;;;10.10;99.90;;;;;;5132860;27;20051;-71
2023/10/27 09:25:31;;;;;;;16.58;12.95;;;10.20;99.90;;;;;;5098640;28;20402;-70
2023/10/27 09:27:58;;;;;;;15.32;12.13;;;10.10;99.90;;;;;;5103429;27;20046;-70
2023/10/27 09:30:34;;;;;;;15.73;12.95;;;10.20;99.90;;;;;;5103352;27;20059;-70
2023/10/27 09:33:26;;;;;;;20.60;14.57;;;10.10;99.90;;;;;;5135163;27;20081;-70
2023/10/27 09:35:52;;;;;;;17.10;13.13;;;10.20;99.90;;;;;;5102912;28;20118;-70
2023/10/27 09:38:20;;;;;;;16.88;13.10;;;10.20;99.90;;;;;;5101963;28;20131;-70
2023/10/27 09:40:46;;;;;;;15.98;12.85;;;10.20;99.90;;;;;;5102262;27;20066;-70
2023/10/27 09:43:17;;;;;;;14.98;12.02;;;10.30;99.90;;;;;;5100616;28;20135;-71
2023/10/27 09:45:54;;;;;;;16.83;12.73;;;10.30;99.90;;;;;;5098213;28;20041;-73
2023/10/27 09:48:25;;;;;;;17.27;13.05;;;10.30;99.90;;;;;;5097921;28;20394;-70
2023/10/27 09:50:55;;;;;;;15.18;12.75;;;10.30;99.90;;;;;;5133482;27;20043;-73
2023/10/27 09:53:23;;;;;;;17.70;13.00;;;10.30;99.90;;;;;;5132916;27;20039;-72
2023/10/27 09:55:49;;;;;;;17.63;12.55;;;10.30;99.90;;;;;;5098494;28;20031;-71
2023/10/27 09:58:15;;;;;;;15.80;12.60;;;10.40;99.90;;;;;;5098593;28;20108;-72
2023/10/27 10:00:41;;;;;;;14.45;12.27;;;10.30;99.90;;;;;;5134732;27;20048;-72
2023/10/27 10:03:07;;;;;;;14.15;11.95;;;10.30;99.90;;;;;;5103468;28;20071;-70
2023/10/27 10:06:15;;;;;;;14.95;12.00;;;10.40;99.90;;;;;;5104531;28;20082;-70
2023/10/27 10:09:01;;;;;;;14.45;11.90;;;10.40;99.90;;;;;;5136143;27;20158;-69
2023/10/27 10:11:27;;;;;;;;;;;10.40;99.90;;;;;;5107189;28;20039;-70
2023/10/27 10:13:53;;;;;;;17.60;13.80;;;10.40;99.90;;;;;;5106226;27;21491;-71
2023/10/27 10:16:19;;;;;;;16.63;13.85;;;10.40;99.90;;;;;;5102514;27;20032;-71
2023/10/27 10:18:48;;;;;;;15.75;12.43;;;10.40;99.90;;;;;;5136484;27;20042;-71
2023/10/27 10:21:39;;;;;;;15.13;13.52;;;10.40;99.90;;;;;;5135685;27;20056;-71
2023/10/27 10:24:08;;;;;;;16.40;12.52;;;10.50;99.90;;;;;;5105774;28;20036;-71
2023/10/27 10:27:02;;;;;;;18.40;13.35;;;10.40;99.90;;;;;;5109052;27;20043;-71
2023/10/27 10:29:28;;;;;;;15.07;12.15;;;10.40;99.90;;;;;;5100162;27;20130;-71
2023/10/27 10:32:32;;;;;;;15.13;12.80;;;10.50;99.90;;;;;;5100708;27;20122;-71
2023/10/27 10:35:24;;;;;;;16.70;12.50;;;10.50;99.90;;;;;;5138503;27;20061;-71
2023/10/27 10:37:54;;;;;;;15.98;13.50;;;10.50;99.90;;;;;;5103653;28;20079;-71
2023/10/27 10:40:24;;;;;;;15.48;13.07;;;10.50;99.90;;;;;;5106665;27;20122;-71
2023/10/27 10:43:24;;;;;;;13.77;12.30;;;10.50;99.90;;;;;;5104383;27;20043;-71
2023/10/27 10:45:53;;;;;;;19.52;12.88;;;10.50;99.90;;;;;;5137154;27;20054;-71
2023/10/27 10:48:26;;;;;;;16.58;12.40;;;10.50;99.90;;;;;;5102275;27;20051;-71
2023/10/27 10:50:59;;;;;;;14.68;12.32;;;10.50;99.90;;;;;;5103494;28;20359;-71
2023/10/27 10:53:25;;;;;;;16.75;12.85;;;10.50;99.90;;;;;;5105446;27;20044;-71
2023/10/27 10:55:56;;;;;;;16.08;12.45;;;10.60;99.90;;;;;;5104591;27;20516;-71
2023/10/27 10:58:24;;;;;;;16.95;12.60;;;10.60;99.90;;;;;;5132861;27;20040;-71
2023/10/27 11:00:51;;;;;;;16.17;13.90;;;10.50;99.90;;;;;;5133428;27;20097;-71
2023/10/27 11:03:18;;;;;;;16.10;13.15;;;10.60;99.90;;;;;;5102748;27;20427;-71
2023/10/27 11:05:44;;;;;;;15.93;13.38;;;10.50;99.90;;;;;;5105174;27;20408;-71
2023/10/27 11:08:10;;;;;;;16.95;13.85;;;10.60;99.90;;;;;;5103132;27;20039;-71
2023/10/27 11:10:36;;;;;;;15.05;12.85;;;10.60;99.90;;;;;;5102112;27;20040;-71
2023/10/27 11:13:05;;;;;;;16.00;13.02;;;10.60;99.90;;;;;;5098816;28;20099;-71
2023/10/27 11:15:45;;;;;;;21.20;13.43;;;10.60;99.90;;;;;;5102544;28;20374;-71
2023/10/27 11:18:12;;;;;;;15.50;13.07;;;10.60;99.90;;;;;;5100806;28;20489;-71
2023/10/27 11:20:38;;;;;;;15.27;13.02;;;10.70;99.90;;;;;;5101521;28;20047;-71
2023/10/27 11:23:12;;;;;;;17.10;12.63;;;10.70;99.90;;;;;;5101743;27;20043;-71
2023/10/27 11:25:38;;;;;;;16.40;13.13;;;10.70;99.90;;;;;;5104781;28;20082;-71
2023/10/27 11:28:21;;;;;;;15.85;12.77;;;10.70;99.90;;;;;;5102394;27;20051;-71
2023/10/27 11:30:59;;;;;;;15.32;13.48;;;10.70;99.90;;;;;;5103533;27;20093;-71
2023/10/27 11:33:25;;;;;;;15.32;13.10;;;11.00;99.90;;;;;;5104017;28;20049;-71
2023/10/27 11:35:51;;;;;;;15.90;13.38;;;10.70;99.90;;;;;;5104950;27;20040;-70
2023/10/27 11:38:16;;;;;;;16.65;14.18;;;10.70;99.90;;;;;;5105002;27;20131;-71
2023/10/27 11:40:42;;;;;;;18.00;14.68;;;10.70;99.90;;;;;;5100475;27;20520;-71
2023/10/27 11:43:08;;;;;;;15.85;13.48;;;10.70;99.90;;;;;;5120953;27;20048;-71
2023/10/27 11:45:36;;;;;;;15.45;13.57;;;10.70;99.90;;;;;;5101165;28;20463;-71
2023/10/27 11:48:03;;;;;;;15.70;13.63;;;10.70;99.90;;;;;;5103084;27;20132;-71
2023/10/27 11:50:29;;;;;;;16.25;14.50;;;10.70;99.90;;;;;;5100898;27;20440;-71
2023/10/27 11:52:54;;;;;;;20.33;14.27;;;10.70;99.90;;;;;;5102616;27;20030;-71
2023/10/27 11:55:20;;;;;;;16.70;13.88;;;10.80;99.90;;;;;;5106995;27;20035;-71
2023/10/27 11:57:45;;;;;;;15.00;13.40;;;10.80;99.90;;;;;;5104372;27;20032;-70
2023/10/27 12:00:11;;;;;;;14.43;12.93;;;10.80;99.90;;;;;;5102510;28;20473;-71
2023/10/27 12:02:37;;;;;;;14.43;12.65;;;10.80;99.90;;;;;;5103647;27;20040;-71
2023/10/27 12:05:03;;;;;;;15.30;12.82;;;10.80;99.90;;;;;;5103349;28;20040;-71
2023/10/27 12:07:29;;;;;;;15.32;13.43;;;10.80;99.90;;;;;;5106868;27;20044;-71
2023/10/27 12:09:54;;;;;;;16.27;14.50;;;10.80;99.90;;;;;;5102138;28;20079;-70
2023/10/27 12:12:21;;;;;;;17.48;14.05;;;10.80;99.90;;;;;;5103171;28;20047;-71
2023/10/27 12:14:47;;;;;;;14.18;12.68;;;10.80;99.90;;;;;;5105995;27;20042;-70
2023/10/27 12:17:13;;;;;;;14.93;13.32;;;10.80;99.90;;;;;;5105340;27;20121;-70
2023/10/27 12:19:38;;;;;;;14.98;13.02;;;10.90;99.90;;;;;;5105405;27;20039;-70
2023/10/27 12:22:04;;;;;;;15.02;13.45;;;10.90;99.90;;;;;;5104914;28;20428;-70
2023/10/27 12:24:33;;;;;;;15.57;13.68;;;10.90;99.90;;;;;;5098955;27;20044;-70
2023/10/27 12:26:59;;;;;;;15.32;13.18;;;10.90;99.90;;;;;;5102445;28;20032;-70
2023/10/27 12:29:26;;;;;;;16.02;13.13;;;10.90;99.90;;;;;;5132490;27;20046;-70
2023/10/27 12:31:52;;;;;;;17.45;14.05;;;10.90;99.90;;;;;;5131923;27;20043;-70